Time;durP1;ratioP1;P1;durP2;ratioP2;P2;SDS_P1;SDS_P2;PMS_P1;PMS_P2;Temp;Humidity;BMP_temperature;BMP_pressure;BME280_temperature;BME280_humidity;BME280_pressure;Samples;Min_cycle;Max_cycle;Signal;HPM_P1;HPM_P2
2023/05/28 00:01:29;;;;;;;11.75;5.57;;;10.90;99.90;;;;;;6185261;23;20043;-88
2023/05/28 00:04:17;;;;;;;13.82;5.22;;;10.90;99.90;;;;;;6190547;23;20332;-86
2023/05/28 00:07:05;;;;;;;11.43;4.60;;;10.90;99.90;;;;;;6189151;23;20029;-87
2023/05/28 00:09:52;;;;;;;13.82;5.57;;;10.90;99.90;;;;;;6184452;23;20028;-87
2023/05/28 00:12:39;;;;;;;13.90;5.60;;;10.90;99.90;;;;;;6185344;23;20036;-88
2023/05/28 00:15:27;;;;;;;19.70;5.90;;;10.80;99.90;;;;;;6183673;23;20039;-87
2023/05/28 00:18:16;;;;;;;19.58;5.53;;;10.70;99.90;;;;;;6162593;23;20029;-87
2023/05/28 00:21:03;;;;;;;15.57;6.07;;;10.60;99.90;;;;;;6184560;23;20040;-87
2023/05/28 00:23:50;;;;;;;16.67;5.88;;;10.50;99.90;;;;;;6161063;23;20025;-87
2023/05/28 00:26:38;;;;;;;12.73;6.20;;;10.50;99.90;;;;;;6183381;23;20043;-87
2023/05/28 00:29:30;;;;;;;11.80;6.30;;;10.40;99.90;;;;;;6144212;23;20032;-88
2023/05/28 00:32:24;;;;;;;15.80;5.93;;;10.40;99.90;;;;;;6184589;23;20479;-87
2023/05/28 00:35:14;;;;;;;12.50;6.22;;;10.40;99.90;;;;;;6185745;23;20091;-87
2023/05/28 00:38:02;;;;;;;17.45;7.32;;;10.30;1.00;;;;;;6182809;23;20036;-88
2023/05/28 00:40:49;;;;;;;18.67;6.25;;;10.30;1.00;;;;;;6165342;23;20052;-86
2023/05/28 00:43:38;;;;;;;15.25;7.35;;;10.30;1.00;;;;;;6164607;23;20021;-86
2023/05/28 00:46:29;;;;;;;16.95;7.45;;;10.20;1.00;;;;;;6183141;23;20452;-86
2023/05/28 00:49:16;;;;;;;18.65;6.63;;;10.20;1.00;;;;;;6185394;23;20075;-87
2023/05/28 00:52:05;;;;;;;15.65;7.00;;;10.10;1.00;;;;;;6183531;23;20329;-87
2023/05/28 00:54:55;;;;;;;18.00;6.68;;;10.10;1.00;;;;;;6184931;23;20407;-88
2023/05/28 00:57:45;;;;;;;15.55;6.53;;;10.10;1.00;;;;;;6183448;23;20021;-88
2023/05/28 01:00:37;;;;;;;18.52;7.00;;;10.10;1.00;;;;;;6186076;23;20325;-87
2023/05/28 01:03:25;;;;;;;15.30;6.83;;;10.10;1.00;;;;;;6183682;23;20075;-87
2023/05/28 01:06:14;;;;;;;17.67;6.47;;;10.00;1.00;;;;;;6185402;23;20017;-86
2023/05/28 01:09:01;;;;;;;14.90;6.47;;;10.00;1.00;;;;;;6142931;23;20033;-88
2023/05/28 01:11:52;;;;;;;15.65;6.90;;;9.90;1.00;;;;;;6186619;23;20029;-88
2023/05/28 01:14:42;;;;;;;16.00;7.07;;;9.90;1.00;;;;;;6183577;23;20025;-88
2023/05/28 01:17:31;;;;;;;21.17;6.70;;;9.80;1.00;;;;;;6183841;23;20021;-89
2023/05/28 01:20:19;;;;;;;16.55;6.80;;;9.80;1.00;;;;;;6162856;23;20031;-88
2023/05/28 01:23:16;;;;;;;17.23;6.80;;;9.80;1.00;;;;;;6182840;23;20080;-88
2023/05/28 01:26:04;;;;;;;13.65;6.47;;;9.70;1.00;;;;;;6183729;23;20029;-87
2023/05/28 01:28:51;;;;;;;14.10;6.95;;;9.70;1.00;;;;;;6184874;23;20043;-88
2023/05/28 01:31:38;;;;;;;10.70;6.10;;;9.60;1.00;;;;;;6183400;23;20039;-88
2023/05/28 01:34:28;;;;;;;13.57;5.65;;;9.60;1.00;;;;;;6182992;23;20029;-89
2023/05/28 01:37:18;;;;;;;19.60;6.68;;;9.50;1.00;;;;;;6185041;23;20025;-87
2023/05/28 01:40:11;;;;;;;17.95;7.03;;;9.50;1.00;;;;;;6187939;23;20021;-88
2023/05/28 01:42:59;;;;;;;14.40;6.07;;;9.50;1.00;;;;;;6194027;23;20079;-87
2023/05/28 01:45:50;;;;;;;17.38;6.75;;;9.50;1.00;;;;;;6192150;23;20036;-88
2023/05/28 01:48:42;;;;;;;20.63;6.85;;;9.40;9.10;;;;;;6185058;23;20329;-88
2023/05/28 01:51:32;;;;;;;17.13;6.75;;;9.40;56.50;;;;;;6183812;23;20025;-88
2023/05/28 01:54:22;;;;;;;15.18;6.22;;;9.30;65.60;;;;;;6181934;23;20036;-88
2023/05/28 01:57:10;;;;;;;15.60;6.68;;;9.20;47.10;;;;;;6183248;23;20021;-89
2023/05/28 01:59:57;;;;;;;17.58;7.13;;;9.30;39.30;;;;;;6182657;23;20021;-87
2023/05/28 02:02:45;;;;;;;18.23;6.72;;;9.30;49.50;;;;;;6160969;23;20021;-89
2023/05/28 02:05:32;;;;;;;13.35;6.78;;;9.30;95.30;;;;;;6182591;23;20447;-88
2023/05/28 02:08:21;;;;;;;18.63;7.15;;;9.20;99.90;;;;;;6163073;23;20036;-89
2023/05/28 02:11:09;;;;;;;15.90;7.00;;;9.20;99.90;;;;;;6184992;23;20040;-88
2023/05/28 02:13:57;;;;;;;16.90;6.72;;;9.20;96.10;;;;;;6182608;23;20056;-88
2023/05/28 02:16:52;;;;;;;13.55;6.47;;;9.10;99.90;;;;;;6184070;23;20052;-88
2023/05/28 02:19:39;;;;;;;15.43;6.82;;;9.00;99.90;;;;;;6184841;23;20021;-88
2023/05/28 02:22:27;;;;;;;17.33;7.05;;;9.00;99.90;;;;;;6183972;23;20028;-87
2023/05/28 02:25:15;;;;;;;17.90;7.38;;;9.00;99.90;;;;;;6182983;23;20025;-88
2023/05/28 02:28:03;;;;;;;13.43;6.00;;;8.90;99.90;;;;;;6182867;23;20040;-87
2023/05/28 02:30:50;;;;;;;14.60;6.55;;;8.90;99.90;;;;;;6189821;23;20413;-88
2023/05/28 02:33:39;;;;;;;13.20;6.35;;;9.00;99.90;;;;;;6168635;23;20124;-88
2023/05/28 02:36:26;;;;;;;14.02;6.90;;;9.00;99.90;;;;;;6185748;23;20055;-88
2023/05/28 02:39:14;;;;;;;12.05;6.03;;;9.10;99.90;;;;;;6163238;23;20036;-87
2023/05/28 02:42:05;;;;;;;12.65;6.25;;;9.00;99.90;;;;;;6162914;23;20029;-88
2023/05/28 02:44:52;;;;;;;14.10;6.47;;;9.00;99.90;;;;;;6162433;23;20071;-87
2023/05/28 02:47:42;;;;;;;17.65;6.93;;;8.90;99.90;;;;;;6182178;23;20409;-88
2023/05/28 02:50:29;;;;;;;15.30;6.22;;;8.90;99.90;;;;;;6181882;23;20349;-88
2023/05/28 02:53:22;;;;;;;16.35;6.88;;;8.90;99.90;;;;;;6183071;23;20029;-89
2023/05/28 02:56:12;;;;;;;14.60;6.70;;;8.80;99.90;;;;;;6183855;23;20025;-88
2023/05/28 02:59:00;;;;;;;17.02;6.75;;;8.80;99.90;;;;;;6182143;23;20067;-89
2023/05/28 03:01:47;;;;;;;14.90;6.93;;;8.70;99.90;;;;;;6185664;23;20083;-85
2023/05/28 03:04:35;;;;;;;13.43;7.03;;;8.60;99.90;;;;;;6162094;23;20025;-86
2023/05/28 03:07:22;;;;;;;18.80;7.43;;;8.60;99.90;;;;;;6184129;23;20035;-88
2023/05/28 03:10:11;;;;;;;12.40;6.32;;;8.60;99.90;;;;;;6184385;23;20333;-89
2023/05/28 03:12:59;;;;;;;13.57;6.80;;;8.60;99.90;;;;;;6185925;23;20025;-88
2023/05/28 03:15:53;;;;;;;10.97;5.13;;;8.60;99.90;;;;;;6166601;23;20036;-90
2023/05/28 03:18:42;;;;;;;16.55;6.97;;;8.60;99.90;;;;;;6165803;23;20025;-90
2023/05/28 03:21:31;;;;;;;13.85;7.38;;;8.70;99.90;;;;;;6184884;23;20064;-90
2023/05/28 03:24:19;;;;;;;11.60;6.85;;;8.80;99.90;;;;;;6161520;23;20029;-88
2023/05/28 03:27:06;;;;;;;19.33;8.38;;;8.70;99.90;;;;;;6183575;23;20491;-88
2023/05/28 03:29:53;;;;;;;16.05;8.05;;;8.70;99.90;;;;;;6184934;23;20025;-88
2023/05/28 03:32:42;;;;;;;18.13;7.85;;;8.60;99.90;;;;;;6184649;23;20028;-87
2023/05/28 03:35:30;;;;;;;17.60;7.20;;;8.50;99.90;;;;;;6183744;23;20428;-87
2023/05/28 03:38:20;;;;;;;13.60;7.20;;;8.50;1.00;;;;;;6182290;23;20028;-88
2023/05/28 03:41:08;;;;;;;18.15;7.68;;;8.50;1.00;;;;;;6184225;23;20333;-88
2023/05/28 03:43:59;;;;;;;14.73;7.35;;;8.60;1.00;;;;;;6161578;23;20025;-88
2023/05/28 03:46:47;;;;;;;16.10;7.82;;;8.50;1.00;;;;;;6184650;23;20262;-89
2023/05/28 03:49:35;;;;;;;16.10;7.07;;;8.50;1.00;;;;;;6185870;23;20040;-88
2023/05/28 03:52:22;;;;;;;15.70;8.40;;;8.40;1.00;;;;;;6186548;23;20041;-88
2023/05/28 03:55:10;;;;;;;17.67;7.68;;;8.40;1.00;;;;;;6164706;23;20035;-87
2023/05/28 03:58:00;;;;;;;21.42;8.18;;;8.40;10.70;;;;;;6195543;23;20021;-88
2023/05/28 04:00:47;;;;;;;18.70;7.72;;;8.40;14.50;;;;;;6194931;23;20091;-86
2023/05/28 04:04:04;;;;;;;17.02;7.70;;;8.40;15.40;;;;;;6186320;23;20009;-89
2023/05/28 04:06:51;;;;;;;16.45;8.05;;;8.60;1.20;;;;;;6185477;23;20025;-89
2023/05/28 04:09:40;;;;;;;16.67;7.95;;;8.70;1.00;;;;;;6162948;23;20043;-90
2023/05/28 04:12:29;;;;;;;18.02;7.50;;;8.80;1.00;;;;;;6184901;23;20037;-90
2023/05/28 04:15:18;;;;;;;21.83;8.30;;;9.00;1.00;;;;;;6188514;23;20428;-90
2023/05/28 04:18:05;;;;;;;13.80;7.82;;;9.10;99.90;;;;;;6183252;23;20021;-87
2023/05/28 04:20:53;;;;;;;15.02;7.63;;;9.20;99.90;;;;;;6184806;23;20053;-89
2023/05/28 04:23:41;;;;;;;18.30;8.05;;;9.30;99.90;;;;;;6162733;23;20033;-88
2023/05/28 04:26:29;;;;;;;14.02;7.10;;;9.40;99.90;;;;;;6186636;23;20024;-87
2023/05/28 04:29:17;;;;;;;12.55;6.80;;;9.40;99.90;;;;;;6184359;23;20025;-89
2023/05/28 04:32:08;;;;;;;13.77;7.00;;;9.50;99.90;;;;;;6162677;23;20029;-88
2023/05/28 04:34:56;;;;;;;17.85;7.25;;;9.60;99.90;;;;;;6165546;23;20108;-88
2023/05/28 04:37:44;;;;;;;13.45;6.93;;;9.60;99.90;;;;;;6161669;23;20044;-88
2023/05/28 04:40:32;;;;;;;15.57;7.30;;;9.70;99.90;;;;;;6182324;23;20021;-88
2023/05/28 04:43:21;;;;;;;15.18;7.70;;;9.90;99.90;;;;;;6164068;23;20039;-88
2023/05/28 04:46:08;;;;;;;13.65;7.72;;;10.00;99.90;;;;;;6184269;23;20107;-89
2023/05/28 04:48:56;;;;;;;17.05;8.82;;;10.10;99.90;;;;;;6186119;23;20047;-89
2023/05/28 04:51:45;;;;;;;16.02;8.20;;;10.20;99.90;;;;;;6183903;23;20033;-88
2023/05/28 04:54:33;;;;;;;18.08;7.97;;;10.40;99.90;;;;;;6164390;23;20035;-90
2023/05/28 04:57:20;;;;;;;14.70;7.65;;;10.50;97.50;;;;;;6167637;23;20024;-91
2023/05/28 05:00:14;;;;;;;18.23;7.32;;;10.50;52.90;;;;;;6198860;23;20013;-90
2023/05/28 05:03:01;;;;;;;16.27;6.75;;;10.60;15.40;;;;;;6198459;23;20021;-91
2023/05/28 05:05:52;;;;;;;18.00;7.50;;;10.70;1.00;;;;;;6193390;23;20060;-89
2023/05/28 05:08:44;;;;;;;18.75;8.23;;;10.90;1.00;;;;;;6169598;23;20028;-92
2023/05/28 05:11:37;;;;;;;13.93;6.88;;;11.00;1.00;;;;;;6189093;23;20040;-91
2023/05/28 05:14:24;;;;;;;19.80;7.18;;;11.10;1.00;;;;;;6187412;23;20025;-91
2023/05/28 05:17:12;;;;;;;22.83;7.35;;;11.30;99.90;;;;;;6186863;23;20025;-90
2023/05/28 05:20:04;;;;;;;13.60;5.82;;;11.40;99.90;;;;;;6164589;23;20144;-90
2023/05/28 05:22:54;;;;;;;14.63;6.43;;;11.50;99.90;;;;;;6144898;23;20428;-90
2023/05/28 05:25:43;;;;;;;11.65;5.68;;;11.60;99.90;;;;;;6184354;23;20127;-88
2023/05/28 05:28:30;;;;;;;14.88;6.20;;;11.80;99.90;;;;;;6163151;23;20021;-88
2023/05/28 05:31:23;;;;;;;12.73;6.63;;;11.90;99.90;;;;;;6185767;23;20021;-91
2023/05/28 05:34:13;;;;;;;14.05;7.00;;;12.10;99.90;;;;;;6186113;23;20025;-91
2023/05/28 05:37:01;;;;;;;11.95;6.50;;;12.20;99.90;;;;;;6187356;23;20028;-91
2023/05/28 05:39:53;;;;;;;17.58;6.85;;;12.30;99.90;;;;;;6146372;23;20439;-91
2023/05/28 05:42:50;;;;;;;19.52;7.72;;;12.30;99.90;;;;;;6188352;23;20037;-92
2023/05/28 05:45:40;;;;;;;13.98;5.95;;;12.40;99.90;;;;;;6185665;23;20033;-91
2023/05/28 05:48:27;;;;;;;12.27;6.15;;;12.50;99.90;;;;;;6180144;23;20421;-86
2023/05/28 05:51:22;;;;;;;16.20;6.20;;;12.60;99.90;;;;;;6183749;23;20025;-89
2023/05/28 05:54:10;;;;;;;17.33;7.00;;;12.70;99.90;;;;;;6181785;23;20044;-89
2023/05/28 05:56:57;;;;;;;15.57;5.95;;;12.90;99.90;;;;;;6184102;23;20033;-90
2023/05/28 05:59:47;;;;;;;14.18;5.65;;;13.10;99.90;;;;;;6184100;23;20119;-89
2023/05/28 06:02:35;;;;;;;15.20;6.07;;;13.10;99.90;;;;;;6163010;23;20025;-89
2023/05/28 06:05:23;;;;;;;19.27;5.78;;;13.30;99.90;;;;;;6183294;23;20029;-90
2023/05/28 06:08:10;;;;;;;14.35;6.30;;;13.30;99.90;;;;;;6186657;23;20428;-90
2023/05/28 06:10:58;;;;;;;11.35;5.63;;;13.40;99.90;;;;;;6165102;23;20025;-87
2023/05/28 06:13:45;;;;;;;12.18;5.38;;;13.50;99.90;;;;;;6193260;23;20475;-89
2023/05/28 06:16:32;;;;;;;15.38;5.18;;;13.60;99.90;;;;;;6175224;23;20084;-88
2023/05/28 06:19:21;;;;;;;13.48;5.88;;;13.60;99.90;;;;;;6187246;23;20029;-87
2023/05/28 06:22:10;;;;;;;14.52;5.60;;;13.70;99.90;;;;;;6182868;23;20731;-88
2023/05/28 06:25:00;;;;;;;10.65;4.78;;;13.90;99.90;;;;;;6182896;23;20025;-86
2023/05/28 06:27:49;;;;;;;14.80;5.50;;;14.10;99.90;;;;;;6183263;23;20692;-90
2023/05/28 06:30:39;;;;;;;13.43;5.45;;;14.20;99.90;;;;;;6182858;23;20035;-87
2023/05/28 06:33:29;;;;;;;9.55;4.25;;;14.30;99.90;;;;;;6162436;23;20036;-87
2023/05/28 06:36:17;;;;;;;14.20;5.72;;;14.60;99.90;;;;;;6162696;23;20021;-88
2023/05/28 06:39:04;;;;;;;18.00;5.38;;;14.60;99.90;;;;;;6182636;23;20105;-89
2023/05/28 06:41:51;;;;;;;11.55;5.30;;;14.80;99.90;;;;;;6162815;23;20025;-85
2023/05/28 06:44:39;;;;;;;12.98;4.90;;;15.00;99.90;;;;;;6164635;23;20031;-89
2023/05/28 06:47:27;;;;;;;13.60;5.35;;;15.20;99.90;;;;;;6184476;23;20033;-86
2023/05/28 06:50:15;;;;;;;11.43;5.32;;;15.50;97.20;;;;;;6185102;23;20386;-89
2023/05/28 06:53:03;;;;;;;15.02;4.85;;;15.80;81.00;;;;;;6142398;23;20029;-86
2023/05/28 06:55:50;;;;;;;11.32;5.50;;;16.10;80.30;;;;;;6186182;23;20033;-87
2023/05/28 06:58:38;;;;;;;13.73;5.22;;;16.20;76.70;;;;;;6185262;23;20025;-88
2023/05/28 07:01:25;;;;;;;12.98;5.15;;;16.50;73.30;;;;;;6162200;23;20025;-87
2023/05/28 07:04:12;;;;;;;12.45;5.35;;;16.80;64.30;;;;;;6183756;23;20021;-89
2023/05/28 07:07:00;;;;;;;10.35;4.78;;;17.20;61.60;;;;;;6183171;23;20126;-87
2023/05/28 07:09:47;;;;;;;12.65;5.38;;;17.60;34.20;;;;;;6184197;23;20417;-87
2023/05/28 07:12:35;;;;;;;10.02;4.50;;;18.00;29.00;;;;;;6184108;23;20029;-88
2023/05/28 07:15:22;;;;;;;11.00;5.07;;;18.40;38.20;;;;;;6163773;23;20035;-88
2023/05/28 07:18:10;;;;;;;10.02;4.63;;;18.90;16.70;;;;;;6165083;23;20039;-86
2023/05/28 07:20:57;;;;;;;12.27;4.72;;;19.20;4.80;;;;;;6163611;23;20021;-88
2023/05/28 07:23:44;;;;;;;11.45;4.72;;;19.70;11.80;;;;;;6186452;23;20568;-89
2023/05/28 07:26:36;;;;;;;13.50;5.13;;;20.40;1.00;;;;;;6165707;23;20269;-89
2023/05/28 07:29:23;;;;;;;14.02;5.10;;;20.70;1.00;;;;;;6164978;23;20087;-90
2023/05/28 07:32:12;;;;;;;10.90;4.80;;;20.70;1.00;;;;;;6186125;23;20044;-88
2023/05/28 07:35:00;;;;;;;11.00;4.38;;;21.10;1.00;;;;;;6185593;23;20040;-90
2023/05/28 07:37:48;;;;;;;13.27;4.82;;;21.60;1.00;;;;;;6186434;23;20055;-89
2023/05/28 07:40:35;;;;;;;10.15;4.40;;;21.90;1.00;;;;;;6165322;23;20029;-87
2023/05/28 07:43:22;;;;;;;10.90;3.90;;;22.40;1.00;;;;;;6164432;23;20096;-89
2023/05/28 07:46:10;;;;;;;11.30;4.55;;;22.90;1.00;;;;;;6185303;23;20032;-87
2023/05/28 07:48:59;;;;;;;10.10;4.55;;;22.80;1.00;;;;;;6161993;23;20025;-89
2023/05/28 07:51:46;;;;;;;11.13;4.65;;;22.90;1.00;;;;;;6184078;23;20108;-87
2023/05/28 07:54:34;;;;;;;13.48;4.88;;;23.20;1.00;;;;;;6183624;23;20523;-89
2023/05/28 07:57:21;;;;;;;10.20;4.00;;;23.70;1.00;;;;;;6162525;23;20039;-88
2023/05/28 08:00:16;;;;;;;8.43;3.97;;;23.80;1.00;;;;;;6163941;23;20032;-88
2023/05/28 08:03:03;;;;;;;10.27;4.13;;;24.10;1.00;;;;;;6184099;23;20458;-88
2023/05/28 08:05:51;;;;;;;10.15;4.65;;;24.20;1.00;;;;;;6185160;23;20025;-86
2023/05/28 08:08:40;;;;;;;10.32;4.15;;;24.20;1.00;;;;;;6184458;23;20116;-89
2023/05/28 08:11:27;;;;;;;10.60;4.47;;;24.50;1.00;;;;;;6162412;23;20064;-88
2023/05/28 08:14:14;;;;;;;11.23;4.32;;;24.80;1.00;;;;;;6164661;23;20029;-88
2023/05/28 08:17:10;;;;;;;10.77;4.55;;;25.20;1.00;;;;;;6183842;23;20036;-90
2023/05/28 08:19:57;;;;;;;8.15;4.30;;;25.20;1.00;;;;;;6163234;23;20036;-89
2023/05/28 08:22:49;;;;;;;10.00;3.80;;;25.00;1.00;;;;;;6187368;23;20072;-90
2023/05/28 08:25:36;;;;;;;9.45;3.60;;;25.50;1.00;;;;;;6186396;23;20021;-88
2023/05/28 08:28:35;;;;;;;11.65;4.90;;;25.50;1.00;;;;;;6187046;23;20340;-88
2023/05/28 08:32:46;;;;;;;11.63;5.35;;;25.50;1.00;;;;;;6189907;23;20025;-92
2023/05/28 08:35:31;;;;;;;10.98;4.32;;;25.00;1.00;;;;;;6187635;23;20124;-86
2023/05/28 08:38:23;;;;;;;8.73;4.30;;;25.20;1.00;;;;;;6162536;23;20393;-90
2023/05/28 08:41:26;;;;;;;13.60;4.88;;;25.90;1.00;;;;;;6092670;23;20018;-89
2023/05/28 08:44:24;;;;;;;11.02;4.80;;;25.90;1.00;;;;;;6158370;23;20024;-89
2023/05/28 08:48:16;;;;;;;;;;;;;;;;;;;;;
2023/05/28 08:51:41;;;;;;;10.02;4.18;;;26.80;1.00;;;;;;6183619;23;20036;-90
2023/05/28 08:54:37;;;;;;;9.07;4.22;;;26.50;1.00;;;;;;6183792;23;20025;-87
2023/05/28 08:57:29;;;;;;;8.20;4.05;;;27.10;1.00;;;;;;6162220;23;20025;-92
2023/05/28 09:00:21;;;;;;;11.38;4.03;;;27.40;1.00;;;;;;6155525;23;20029;-92
2023/05/28 09:03:09;;;;;;;11.93;4.30;;;27.90;1.00;;;;;;6165012;23;20025;-87
2023/05/28 09:05:56;;;;;;;9.57;4.35;;;27.70;1.00;;;;;;6161670;23;20039;-87
2023/05/28 09:08:45;;;;;;;8.38;3.63;;;27.80;1.00;;;;;;6166014;23;20033;-91
2023/05/28 09:11:35;;;;;;;10.75;4.00;;;28.00;1.00;;;;;;6186939;23;20132;-92
2023/05/28 09:14:22;;;;;;;8.48;3.72;;;28.10;1.00;;;;;;6188708;23;20417;-88
2023/05/28 09:17:13;;;;;;;5.72;3.42;;;28.60;1.00;;;;;;6185782;23;20044;-92
2023/05/28 09:20:12;;;;;;;9.73;3.90;;;28.40;1.00;;;;;;6185248;23;20340;-90
2023/05/28 09:23:02;;;;;;;9.80;4.28;;;28.30;1.00;;;;;;6165264;23;20025;-88
2023/05/28 09:25:56;;;;;;;8.60;4.15;;;28.40;1.00;;;;;;6185567;23;20051;-91
2023/05/28 09:28:43;;;;;;;11.57;4.47;;;28.50;1.00;;;;;;6187454;23;20092;-91
2023/05/28 09:31:34;;;;;;;12.13;3.92;;;28.70;1.00;;;;;;6163823;23;20587;-90
2023/05/28 09:34:31;;;;;;;8.20;4.15;;;28.40;1.00;;;;;;6186913;23;20421;-87
2023/05/28 09:37:27;;;;;;;11.48;3.53;;;28.20;1.00;;;;;;6185099;23;20040;-91
2023/05/28 09:40:21;;;;;;;11.68;3.90;;;28.00;1.00;;;;;;6185263;23;20036;-91
2023/05/28 09:43:09;;;;;;;6.82;3.70;;;28.40;1.00;;;;;;6185538;23;20132;-88
2023/05/28 09:46:09;;;;;;;10.38;3.95;;;28.90;1.00;;;;;;6192399;23;20025;-84
2023/05/28 09:48:57;;;;;;;12.15;3.85;;;28.90;1.00;;;;;;6185363;23;20093;-89
2023/05/28 09:51:50;;;;;;;11.02;3.58;;;28.20;1.00;;;;;;6186502;23;20029;-92
2023/05/28 09:54:39;;;;;;;10.90;3.90;;;27.90;1.00;;;;;;6188703;23;20025;-89
2023/05/28 09:57:35;;;;;;;9.15;4.05;;;27.20;1.00;;;;;;6188908;23;20055;-87
2023/05/28 10:00:29;;;;;;;8.20;3.85;;;27.50;1.00;;;;;;6160898;23;20068;-86
2023/05/28 10:03:36;;;;;;;10.15;3.95;;;27.80;1.00;;;;;;6181899;23;20025;-86
2023/05/28 10:06:27;;;;;;;8.80;3.78;;;28.10;1.00;;;;;;6182957;23;20036;-92
2023/05/28 10:09:17;;;;;;;11.80;3.92;;;28.50;1.00;;;;;;6162505;23;20025;-89
2023/05/28 10:12:16;;;;;;;9.45;4.10;;;28.20;1.00;;;;;;6164909;23;20029;-89
2023/05/28 10:15:06;;;;;;;10.85;3.97;;;28.00;1.00;;;;;;6185358;23;20417;-90
2023/05/28 10:17:55;;;;;;;8.35;3.60;;;28.10;1.00;;;;;;6184468;23;20116;-89
2023/05/28 10:20:42;;;;;;;9.63;3.45;;;28.00;1.00;;;;;;6186351;23;20052;-89
2023/05/28 10:23:30;;;;;;;10.20;3.88;;;28.30;1.00;;;;;;6187277;23;20029;-91
2023/05/28 10:26:18;;;;;;;9.65;3.92;;;28.50;1.00;;;;;;6164040;23;20021;-89
2023/05/28 10:29:09;;;;;;;9.32;3.33;;;29.20;1.00;;;;;;6187078;23;20413;-91
2023/05/28 10:32:03;;;;;;;9.70;3.55;;;29.60;1.00;;;;;;6187584;23;20029;-90
2023/05/28 10:35:00;;;;;;;8.38;3.80;;;29.80;1.00;;;;;;6186840;23;20035;-91
2023/05/28 10:37:47;;;;;;;10.38;4.03;;;29.30;1.00;;;;;;6187563;23;20698;-91
2023/05/28 10:40:35;;;;;;;7.03;3.75;;;29.00;1.00;;;;;;6164359;23;20025;-90
2023/05/28 10:43:37;;;;;;;8.52;3.88;;;28.70;1.00;;;;;;6187734;23;20325;-87
2023/05/28 10:46:25;;;;;;;;;;;29.10;1.00;;;;;;6188788;23;20025;-89
2023/05/28 10:49:14;;;;;;;9.82;3.88;;;29.60;1.00;;;;;;6189808;23;19920;-90
2023/05/28 10:52:02;;;;;;;11.70;3.55;;;29.90;1.00;;;;;;6189298;23;20033;-90
2023/05/28 10:54:52;;;;;;;7.45;3.10;;;30.40;1.00;;;;;;6188198;23;20029;-90
2023/05/28 10:57:46;;;;;;;6.35;3.15;;;29.40;1.00;;;;;;6167039;23;20031;-86
2023/05/28 11:00:40;;;;;;;10.20;3.78;;;29.50;1.00;;;;;;6187752;23;20029;-86
2023/05/28 11:03:45;;;;;;;7.75;3.25;;;30.10;1.00;;;;;;6194738;23;20021;-89
2023/05/28 11:06:39;;;;;;;6.07;3.22;;;29.80;1.00;;;;;;6172977;23;20413;-90
2023/05/28 11:09:27;;;;;;;5.47;3.15;;;29.80;1.00;;;;;;6192799;23;20402;-90
2023/05/28 11:12:15;;;;;;;7.10;3.30;;;29.50;1.00;;;;;;6196675;23;20029;-91
2023/05/28 11:15:05;;;;;;;6.97;3.25;;;29.30;1.00;;;;;;6189943;23;20040;-89
2023/05/28 11:17:52;;;;;;;7.20;3.25;;;29.70;1.00;;;;;;6195119;23;20104;-89
2023/05/28 11:20:40;;;;;;;6.70;3.33;;;30.50;1.00;;;;;;6165522;23;20386;-90
2023/05/28 11:23:30;;;;;;;9.50;3.67;;;31.60;1.00;;;;;;6166589;23;20025;-86
2023/05/28 11:26:22;;;;;;;8.35;3.67;;;30.70;1.00;;;;;;6186515;23;20029;-89
2023/05/28 11:29:13;;;;;;;9.88;3.58;;;31.00;1.00;;;;;;6183043;23;20025;-89
2023/05/28 11:32:03;;;;;;;7.60;3.28;;;31.30;1.00;;;;;;6187450;23;20032;-90
2023/05/28 11:34:52;;;;;;;8.45;4.03;;;31.80;1.00;;;;;;6164553;23;20024;-87
2023/05/28 11:37:41;;;;;;;8.25;4.20;;;31.30;1.00;;;;;;6184793;23;20039;-90
2023/05/28 11:40:34;;;;;;;8.52;4.03;;;31.00;1.00;;;;;;6187533;23;20029;-85
2023/05/28 11:43:25;;;;;;;6.93;3.40;;;31.00;1.00;;;;;;6187334;23;20100;-89
2023/05/28 11:46:17;;;;;;;8.77;3.80;;;30.70;1.00;;;;;;6185338;23;20033;-86
2023/05/28 11:49:09;;;;;;;11.60;5.00;;;31.30;1.00;;;;;;6167546;23;20025;-90
2023/05/28 11:51:59;;;;;;;8.40;4.43;;;32.20;1.00;;;;;;6164946;23;20021;-89
2023/05/28 11:54:51;;;;;;;7.03;4.13;;;33.20;1.00;;;;;;6183418;23;20032;-86
2023/05/28 11:57:56;;;;;;;12.02;4.78;;;33.30;1.00;;;;;;6183618;23;20421;-89
2023/05/28 12:00:44;;;;;;;10.68;4.30;;;32.90;1.00;;;;;;6184037;23;20025;-87
2023/05/28 12:03:32;;;;;;;9.73;4.35;;;32.30;1.00;;;;;;6163024;23;20021;-87
2023/05/28 12:06:20;;;;;;;8.85;3.88;;;31.50;1.00;;;;;;6184991;23;20460;-88
2023/05/28 12:09:22;;;;;;;10.60;4.93;;;31.00;1.00;;;;;;6185363;23;20456;-88
2023/05/28 12:12:11;;;;;;;9.70;4.40;;;30.80;1.00;;;;;;6185322;23;20036;-88
2023/05/28 12:15:00;;;;;;;8.73;4.00;;;30.90;1.00;;;;;;6162362;23;20044;-88
2023/05/28 12:18:00;;;;;;;8.73;4.25;;;31.40;1.00;;;;;;6185344;23;20114;-86
2023/05/28 12:20:48;;;;;;;7.78;4.32;;;32.30;1.00;;;;;;6183489;23;20029;-88
2023/05/28 12:23:35;;;;;;;7.85;3.75;;;32.80;1.00;;;;;;6187339;23;20025;-89
2023/05/28 12:26:22;;;;;;;7.28;3.85;;;33.10;1.00;;;;;;6162735;23;20716;-86
2023/05/28 12:29:12;;;;;;;10.05;4.57;;;33.50;1.00;;;;;;6183895;23;20163;-87
2023/05/28 12:32:02;;;;;;;8.43;4.05;;;33.30;1.00;;;;;;6184680;23;20447;-88
2023/05/28 12:34:51;;;;;;;11.07;3.80;;;32.70;1.00;;;;;;6184450;23;20099;-88
2023/05/28 12:37:38;;;;;;;9.13;3.97;;;33.20;1.00;;;;;;6182814;23;20039;-89
2023/05/28 12:40:29;;;;;;;11.73;4.13;;;32.90;1.00;;;;;;6185169;23;20402;-92
2023/05/28 12:43:26;;;;;;;13.80;5.15;;;33.10;1.00;;;;;;6192201;23;20107;-91
2023/05/28 12:46:15;;;;;;;;;;;32.50;1.00;;;;;;6196685;23;20025;-93
2023/05/28 12:49:02;;;;;;;10.50;4.32;;;32.40;1.00;;;;;;6192254;23;19920;-92
2023/05/28 12:51:52;;;;;;;10.98;4.75;;;32.90;1.00;;;;;;6191417;23;20036;-94
2023/05/28 12:54:44;;;;;;;12.93;5.00;;;32.80;1.00;;;;;;6185230;23;20033;-94
2023/05/28 12:57:32;;;;;;;8.75;5.10;;;33.00;1.00;;;;;;6185939;23;20488;-91
2023/05/28 13:00:24;;;;;;;79.30;70.68;;;33.30;1.00;;;;;;6187364;23;20411;-96
2023/05/28 13:03:11;;;;;;;17.77;7.40;;;33.60;1.00;;;;;;6165119;23;20035;-90
2023/05/28 13:05:59;;;;;;;69.82;62.70;;;33.00;1.00;;;;;;6166749;23;20084;-91
2023/05/28 13:08:46;;;;;;;10.63;4.68;;;32.90;1.00;;;;;;6186120;23;20025;-92
2023/05/28 13:11:34;;;;;;;8.43;4.72;;;33.10;1.00;;;;;;6194919;23;20033;-91
2023/05/28 13:14:21;;;;;;;10.60;4.38;;;33.00;1.00;;;;;;6189779;23;20156;-89
2023/05/28 13:17:08;;;;;;;10.18;4.40;;;32.70;1.00;;;;;;6193880;23;20036;-94
2023/05/28 13:19:58;;;;;;;6.95;4.15;;;33.10;1.00;;;;;;6190331;23;20417;-93
2023/05/28 13:22:46;;;;;;;8.18;4.20;;;33.10;1.00;;;;;;6192150;23;20047;-94
2023/05/28 13:25:39;;;;;;;6.82;4.10;;;32.70;1.00;;;;;;6170986;23;20036;-94
2023/05/28 13:28:29;;;;;;;9.13;4.45;;;32.60;1.00;;;;;;6175231;23;20048;-91
2023/05/28 13:31:17;;;;;;;8.77;4.60;;;33.10;1.00;;;;;;6187497;23;20025;-93
2023/05/28 13:34:05;;;;;;;7.57;4.90;;;32.50;1.00;;;;;;6196845;23;20100;-92
2023/05/28 13:36:54;;;;;;;9.95;4.85;;;32.60;1.00;;;;;;6167255;23;20329;-94
2023/05/28 13:39:41;;;;;;;7.97;4.68;;;32.50;1.00;;;;;;6192965;23;20021;-92
2023/05/28 13:42:32;;;;;;;7.38;4.40;;;32.50;1.00;;;;;;6187715;23;20025;-89
2023/05/28 13:45:21;;;;;;;8.10;4.50;;;32.60;1.00;;;;;;6183688;23;20390;-90
2023/05/28 13:48:08;;;;;;;7.55;4.53;;;32.40;1.00;;;;;;6161784;23;20064;-88
2023/05/28 13:50:58;;;;;;;8.35;4.30;;;32.00;1.00;;;;;;6183512;23;20101;-89
2023/05/28 13:53:46;;;;;;;7.18;4.13;;;31.20;1.00;;;;;;6162036;23;20037;-89
2023/05/28 13:56:34;;;;;;;7.53;4.20;;;31.20;1.00;;;;;;6182935;23;20033;-89
2023/05/28 13:59:21;;;;;;;8.43;4.68;;;31.40;1.00;;;;;;6184114;23;20029;-92
2023/05/28 14:02:11;;;;;;;8.63;4.70;;;31.40;1.00;;;;;;6184343;23;20406;-88
2023/05/28 14:04:59;;;;;;;7.57;4.55;;;31.70;1.00;;;;;;6182951;23;20029;-86
2023/05/28 14:07:46;;;;;;;7.95;4.65;;;31.70;1.00;;;;;;6183118;23;20069;-89
2023/05/28 14:10:36;;;;;;;7.50;4.88;;;31.10;1.00;;;;;;6184315;23;20048;-87
2023/05/28 14:13:31;;;;;;;8.02;4.10;;;31.40;1.00;;;;;;6184350;23;20028;-90
2023/05/28 14:16:18;;;;;;;10.55;4.60;;;31.90;1.00;;;;;;6161240;23;20294;-90
2023/05/28 14:19:05;;;;;;;8.63;4.55;;;31.40;1.00;;;;;;6163420;23;20145;-90
2023/05/28 14:21:54;;;;;;;7.65;4.75;;;31.70;1.00;;;;;;6162298;23;20025;-92
2023/05/28 14:24:43;;;;;;;16.45;4.60;;;31.90;1.00;;;;;;6186925;23;20032;-86
2023/05/28 14:27:32;;;;;;;8.43;4.65;;;32.10;1.00;;;;;;6182890;23;20028;-88
2023/05/28 14:30:44;;;;;;;9.70;6.47;;;31.50;1.00;;;;;;6181164;23;20023;-87
2023/05/28 14:36:45;;;;;;;10.95;7.28;;;31.40;1.00;;;;;;6184948;23;20025;-86
2023/05/28 14:39:33;;;;;;;78.32;69.70;;;30.60;1.00;;;;;;6184182;23;20138;-89
2023/05/28 14:42:20;;;;;;;10.45;7.53;;;30.40;1.00;;;;;;6164514;23;20055;-86
2023/05/28 14:45:09;;;;;;;8.35;4.13;;;30.20;1.00;;;;;;6162343;23;20069;-84
2023/05/28 14:47:56;;;;;;;9.75;4.50;;;29.70;1.00;;;;;;6181662;23;20029;-87
2023/05/28 14:50:43;;;;;;;8.20;4.43;;;30.10;1.00;;;;;;6162002;23;20029;-85
2023/05/28 14:53:31;;;;;;;15.30;8.52;;;30.50;1.00;;;;;;6181900;23;20440;-87